createdAt,value
2022-10-04T00:01:49.158Z,46.90
2022-10-04T00:04:20.697Z,59.57
2022-10-04T00:06:52.856Z,53.83
2022-10-04T00:09:23.453Z,36.67
2022-10-04T00:11:51.793Z,40.80
2022-10-04T00:14:24.188Z,34.10
2022-10-04T00:16:52.775Z,39.33
2022-10-04T00:19:39.065Z,47.23
2022-10-04T00:22:20.445Z,58.90
2022-10-04T00:25:20.683Z,35.37
2022-10-04T00:28:25.468Z,34.27
2022-10-04T00:31:21.976Z,30.90
2022-10-04T00:33:51.855Z,31.67
2022-10-04T00:36:47.895Z,28.03
2022-10-04T00:39:41.634Z,27.67
2022-10-04T00:42:33.611Z,24.00
2022-10-04T00:45:04.212Z,31.57
2022-10-04T00:47:35.224Z,41.13
2022-10-04T00:50:16.599Z,27.50
2022-10-04T00:52:46.512Z,50.93
2022-10-04T00:55:22.977Z,40.47
2022-10-04T00:57:51.685Z,48.47
2022-10-04T01:00:21.336Z,35.13
2022-10-04T01:02:54.106Z,30.90
2022-10-04T01:05:24.433Z,40.80
2022-10-04T01:07:55.663Z,43.33
2022-10-04T01:10:26.752Z,33.33
2022-10-04T01:12:58.684Z,33.30
2022-10-04T01:15:32.773Z,44.33
2022-10-04T01:18:16.556Z,34.67
2022-10-04T01:20:54.322Z,45.83
2022-10-04T01:23:41.596Z,48.00
2022-10-04T01:26:38.252Z,43.93
2022-10-04T01:29:13.097Z,47.47
2022-10-04T01:31:43.236Z,64.20
2022-10-04T01:34:14.155Z,36.47
2022-10-04T01:36:41.967Z,38.40
2022-10-04T01:39:11.169Z,37.60
2022-10-04T01:41:46.080Z,30.73
2022-10-04T01:44:20.040Z,27.63
2022-10-04T01:46:48.053Z,42.97
2022-10-04T01:49:19.749Z,28.77
2022-10-04T01:51:54.460Z,37.50
2022-10-04T01:54:30.888Z,33.13
2022-10-04T01:57:01.336Z,141.10
2022-10-04T01:59:31.536Z,46.30
2022-10-04T02:02:04.103Z,39.87
2022-10-04T02:04:34.608Z,33.30
2022-10-04T02:07:03.235Z,112.97
2022-10-04T02:09:34.546Z,85.20
2022-10-04T02:12:02.994Z,87.83
2022-10-04T02:14:34.029Z,26.07
2022-10-04T02:17:02.940Z,24.87
2022-10-04T02:19:34.520Z,50.17
2022-10-04T02:22:03.364Z,125.63
2022-10-04T02:24:34.772Z,46.50
2022-10-04T02:27:02.463Z,41.60
2022-10-04T02:29:30.071Z,112.93
2022-10-04T02:32:15.272Z,176.37
2022-10-04T02:34:42.868Z,31.10
2022-10-04T02:37:10.944Z,90.50
2022-10-04T02:39:43.958Z,110.17
2022-10-04T02:42:14.915Z,105.60
2022-10-04T02:44:43.467Z,178.00
2022-10-04T02:47:15.040Z,178.60
2022-10-04T02:49:45.928Z,42.03
2022-10-04T02:52:16.795Z,194.20
2022-10-04T02:54:47.914Z,75.70
2022-10-04T02:57:17.101Z,28.77
2022-10-04T02:59:44.668Z,28.63
2022-10-04T03:02:29.701Z,43.60
2022-10-04T03:05:00.898Z,32.57
2022-10-04T03:07:28.701Z,33.17
2022-10-04T03:09:57.596Z,70.37
2022-10-04T03:12:26.117Z,30.40
2022-10-04T03:14:53.938Z,27.97
2022-10-04T03:17:21.896Z,32.67
2022-10-04T03:19:49.913Z,109.67
2022-10-04T03:22:18.298Z,72.97
2022-10-04T03:24:47.690Z,44.70
2022-10-04T03:27:18.716Z,85.37
2022-10-04T03:29:46.628Z,137.87
2022-10-04T03:32:15.311Z,34.60
2022-10-04T03:34:45.388Z,28.83
2022-10-04T03:37:15.423Z,47.80
2022-10-04T03:39:44.851Z,162.20
2022-10-04T03:42:15.163Z,31.77
2022-10-04T03:44:45.231Z,90.80
2022-10-04T03:47:14.913Z,103.40
2022-10-04T03:49:45.273Z,34.33
2022-10-04T03:52:18.955Z,83.57
2022-10-04T03:54:47.335Z,190.40
2022-10-04T03:57:14.901Z,69.70
2022-10-04T03:59:44.035Z,33.10
2022-10-04T04:02:14.927Z,54.10
2022-10-04T04:04:46.803Z,122.90
2022-10-04T04:07:18.763Z,34.53
2022-10-04T04:09:50.842Z,23.17
2022-10-04T04:12:20.749Z,47.20
2022-10-04T04:14:51.699Z,25.83
2022-10-04T04:17:38.062Z,32.27
2022-10-04T04:20:14.553Z,27.13
2022-10-04T04:22:44.271Z,29.27
2022-10-04T04:25:15.972Z,30.97
2022-10-04T04:27:44.752Z,28.87
2022-10-04T04:30:17.076Z,48.23
2022-10-04T04:32:47.553Z,29.63
2022-10-04T04:35:24.104Z,26.07
2022-10-04T04:38:08.002Z,31.97
2022-10-04T04:40:37.700Z,31.07
2022-10-04T04:43:05.318Z,29.73
2022-10-04T04:45:35.701Z,33.50
2022-10-04T04:48:04.640Z,25.67
2022-10-04T04:50:33.595Z,28.87
2022-10-04T04:53:05.203Z,34.80
2022-10-04T04:55:56.306Z,24.93
2022-10-04T04:58:26.227Z,37.83
2022-10-04T05:00:58.660Z,56.17
2022-10-04T05:03:26.951Z,47.60
2022-10-04T05:05:55.010Z,74.03
2022-10-04T05:08:24.652Z,58.47
2022-10-04T05:10:58.709Z,79.53
2022-10-04T05:13:31.282Z,41.93
2022-10-04T05:16:00.625Z,89.87
2022-10-04T05:18:30.491Z,59.13
2022-10-04T05:21:00.678Z,71.40
2022-10-04T05:23:28.643Z,42.93
2022-10-04T05:25:56.177Z,33.67
2022-10-04T05:28:23.964Z,83.23
2022-10-04T05:31:04.529Z,40.73
2022-10-04T05:33:39.503Z,30.53
2022-10-04T05:36:52.681Z,23.30
2022-10-04T05:39:27.720Z,27.00
2022-10-04T05:41:59.267Z,29.37
2022-10-04T05:44:28.288Z,47.70
2022-10-04T05:46:58.488Z,41.47
2022-10-04T05:49:27.552Z,29.70
2022-10-04T05:51:57.283Z,46.73
2022-10-04T05:54:27.749Z,38.63
2022-10-04T05:57:27.244Z,33.47
2022-10-04T06:00:09.374Z,26.47
2022-10-04T06:02:51.073Z,66.23
2022-10-04T06:05:28.811Z,31.20
2022-10-04T06:07:59.796Z,26.17
2022-10-04T06:10:45.252Z,34.00
2022-10-04T06:13:23.703Z,28.30
2022-10-04T06:15:58.613Z,29.63
2022-10-04T06:18:40.912Z,27.53
2022-10-04T06:21:19.418Z,33.37
2022-10-04T06:23:52.563Z,31.93
2022-10-04T06:26:24.884Z,29.60
2022-10-04T06:28:55.908Z,27.93
2022-10-04T06:31:48.488Z,29.83
2022-10-04T06:34:41.191Z,32.73
2022-10-04T06:37:34.723Z,50.07
2022-10-04T06:40:26.780Z,27.90
2022-10-04T06:43:05.059Z,31.53
2022-10-04T06:45:45.390Z,30.20
2022-10-04T06:48:26.978Z,22.67
2022-10-04T06:51:04.299Z,40.07
2022-10-04T06:53:41.540Z,30.30
2022-10-04T06:56:28.031Z,23.97
2022-10-04T06:59:10.981Z,27.00
2022-10-04T07:01:48.587Z,24.20
2022-10-04T07:04:25.763Z,31.20
2022-10-04T07:07:21.921Z,29.47
2022-10-04T07:09:50.176Z,30.97
2022-10-04T07:12:18.384Z,26.63
2022-10-04T07:14:49.037Z,22.60
2022-10-04T07:17:20.416Z,22.33
2022-10-04T07:19:49.523Z,29.30
2022-10-04T07:22:22.645Z,34.93
2022-10-04T07:24:58.752Z,32.13
2022-10-04T07:27:30.909Z,26.33
2022-10-04T07:29:59.374Z,33.07
2022-10-04T07:32:28.872Z,25.63
2022-10-04T07:35:00.851Z,30.20
2022-10-04T07:37:31.749Z,35.33
2022-10-04T07:40:02.448Z,25.80
2022-10-04T07:42:32.806Z,30.80
2022-10-04T07:45:06.112Z,25.47
2022-10-04T07:47:33.785Z,20.93
2022-10-04T07:50:01.295Z,25.87
2022-10-04T07:52:41.445Z,28.03
2022-10-04T07:55:16.918Z,27.40
2022-10-04T07:57:50.054Z,28.10
2022-10-04T08:00:20.207Z,32.27
2022-10-04T08:02:59.923Z,28.67
2022-10-04T08:05:30.249Z,38.40
2022-10-04T08:08:12.458Z,21.67
2022-10-04T08:10:52.112Z,28.10
2022-10-04T08:13:27.473Z,28.30
2022-10-04T08:16:01.237Z,34.93
2022-10-04T08:18:40.029Z,24.43
2022-10-04T08:21:08.767Z,30.17
2022-10-04T08:23:56.272Z,25.10
2022-10-04T08:26:44.806Z,25.97
2022-10-04T08:29:43.846Z,25.90
2022-10-04T08:32:24.250Z,44.93
2022-10-04T08:35:16.284Z,33.03
2022-10-04T08:37:53.633Z,23.30
2022-10-04T08:40:44.323Z,26.73
2022-10-04T08:43:24.322Z,32.43
2022-10-04T08:46:09.590Z,47.40
2022-10-04T08:49:25.339Z,26.83
2022-10-04T08:52:22.208Z,26.43
2022-10-04T08:55:20.831Z,25.00
2022-10-04T08:58:04.768Z,21.83
2022-10-04T09:00:39.680Z,22.50
2022-10-04T09:03:42.759Z,36.57
2022-10-04T09:06:20.118Z,22.93
2022-10-04T09:09:17.505Z,24.97
2022-10-04T09:11:58.272Z,37.17
2022-10-04T09:14:45.752Z,63.37
2022-10-04T09:17:22.545Z,35.50
2022-10-04T09:20:05.027Z,25.33
2022-10-04T09:22:48.716Z,37.43
2022-10-04T09:25:36.388Z,22.40
2022-10-04T09:28:20.617Z,30.53
2022-10-04T09:31:02.846Z,21.93
2022-10-04T09:33:49.331Z,62.17
2022-10-04T09:36:28.094Z,27.87
2022-10-04T09:39:30.396Z,50.40
2022-10-04T09:42:28.755Z,26.73
2022-10-04T09:45:27.395Z,25.57
2022-10-04T09:48:07.760Z,25.60
2022-10-04T09:50:48.731Z,48.03
2022-10-04T09:53:29.063Z,23.30
2022-10-04T09:56:18.316Z,64.27
2022-10-04T09:59:18.479Z,65.03
2022-10-04T10:02:09.957Z,29.40
2022-10-04T10:04:44.395Z,71.30
2022-10-04T10:07:31.412Z,72.10
2022-10-04T10:10:22.723Z,29.07
2022-10-04T10:13:37.801Z,27.63
2022-10-04T10:16:13.515Z,28.20
2022-10-04T10:18:50.293Z,20.50
2022-10-04T10:21:37.128Z,57.00
2022-10-04T10:24:17.920Z,41.13
2022-10-04T10:26:57.359Z,62.70
2022-10-04T10:29:54.379Z,59.23
2022-10-04T10:32:40.083Z,77.63
2022-10-04T10:35:17.551Z,47.20
2022-10-04T10:38:03.640Z,57.07
2022-10-04T10:40:42.203Z,24.07
2022-10-04T10:43:42.693Z,76.37
2022-10-04T10:46:23.470Z,66.53
2022-10-04T10:49:09.958Z,24.97
2022-10-04T10:52:06.127Z,31.87
2022-10-04T10:54:50.313Z,26.73
2022-10-04T10:57:34.287Z,49.87
2022-10-04T11:00:20.275Z,27.30
2022-10-04T11:03:32.482Z,106.70
2022-10-04T11:06:36.303Z,34.10
2022-10-04T11:09:29.460Z,88.20
2022-10-04T11:12:38.999Z,59.70
2022-10-04T11:15:36.188Z,42.73
2022-10-04T11:18:27.903Z,32.27
2022-10-04T11:21:39.816Z,34.13
2022-10-04T11:24:47.863Z,128.10
2022-10-04T11:27:28.321Z,26.37
2022-10-04T11:30:13.789Z,39.67
2022-10-04T11:33:17.282Z,84.70
2022-10-04T11:36:07.435Z,51.23
2022-10-04T11:39:03.277Z,33.20
2022-10-04T11:41:44.233Z,67.23
2022-10-04T11:44:43.520Z,93.70
2022-10-04T11:47:23.961Z,92.37
2022-10-04T11:50:04.753Z,107.60
2022-10-04T11:53:03.295Z,130.70
2022-10-04T11:55:54.237Z,168.30
2022-10-04T11:58:29.703Z,43.57
2022-10-04T12:01:19.874Z,145.33
2022-10-04T12:04:09.798Z,124.10
2022-10-04T12:06:50.517Z,91.43
2022-10-04T12:09:22.080Z,107.83
2022-10-04T12:12:40.055Z,106.93
2022-10-04T12:15:49.794Z,129.47
2022-10-04T12:18:44.419Z,103.93
2022-10-04T12:21:50.336Z,126.23
2022-10-04T12:24:38.322Z,112.40
2022-10-04T12:27:19.826Z,55.90
2022-10-04T12:30:15.819Z,30.53
2022-10-04T12:32:52.235Z,114.87
2022-10-04T12:35:29.674Z,37.87
2022-10-04T12:38:21.064Z,96.33
2022-10-04T12:40:57.303Z,80.53
2022-10-04T12:43:31.591Z,141.03
2022-10-04T12:46:11.933Z,116.10
2022-10-04T12:48:49.235Z,34.30
2022-10-04T12:51:28.597Z,118.57
2022-10-04T12:54:02.520Z,150.53
2022-10-04T12:56:39.571Z,165.93
2022-10-04T12:59:28.623Z,175.17
2022-10-04T13:02:03.342Z,199.87
2022-10-04T13:04:36.190Z,195.20
2022-10-04T13:07:15.931Z,230.53
2022-10-04T13:10:11.967Z,189.43
2022-10-04T13:13:04.422Z,198.53
2022-10-04T13:18:28.182Z,144.17
2022-10-04T13:21:01.778Z,193.10
2022-10-04T13:23:41.074Z,174.10
2022-10-04T13:26:30.016Z,154.90
2022-10-04T13:29:04.875Z,108.57
2022-10-04T13:31:36.692Z,113.40
2022-10-04T13:34:15.460Z,194.73
2022-10-04T13:36:54.211Z,204.27
2022-10-04T13:39:37.917Z,189.70
2022-10-04T13:42:28.828Z,47.80
2022-10-04T13:45:05.387Z,172.80
2022-10-04T13:47:44.937Z,104.90
2022-10-04T13:50:48.971Z,273.40
2022-10-04T13:53:45.715Z,169.73
2022-10-04T13:56:37.616Z,164.27
2022-10-04T13:59:11.283Z,260.80
2022-10-04T14:02:12.608Z,201.10
2022-10-04T14:05:15.957Z,222.73
2022-10-04T14:07:52.136Z,197.70
2022-10-04T14:10:42.760Z,210.30
2022-10-04T14:13:42.815Z,244.40
2022-10-04T14:16:56.116Z,233.00
2022-10-04T14:20:00.815Z,183.17
2022-10-04T14:22:50.190Z,204.47
2022-10-04T14:25:59.835Z,245.37
2022-10-04T14:28:59.820Z,248.03
2022-10-04T14:31:47.887Z,208.40
2022-10-04T14:34:35.075Z,228.67
2022-10-04T14:37:27.197Z,292.47
2022-10-04T14:40:15.238Z,259.20
2022-10-04T14:42:55.784Z,248.77
2022-10-04T14:45:35.127Z,293.43
2022-10-04T14:48:44.289Z,313.67
2022-10-04T14:51:37.690Z,222.07
2022-10-04T14:54:08.688Z,257.63
2022-10-04T14:56:44.783Z,257.03
2022-10-04T14:59:25.791Z,296.30
2022-10-04T15:02:14.452Z,298.50
2022-10-04T15:05:02.843Z,244.00
2022-10-04T15:07:33.325Z,286.33
2022-10-04T15:10:06.658Z,313.13
2022-10-04T15:13:09.926Z,280.00
2022-10-04T15:15:44.691Z,109.10
2022-10-04T15:18:28.095Z,220.20
2022-10-04T15:20:59.977Z,343.73
2022-10-04T15:23:37.864Z,323.57
2022-10-04T15:26:38.899Z,313.17
2022-10-04T15:29:10.580Z,373.07
2022-10-04T15:31:42.473Z,335.03
2022-10-04T15:34:24.819Z,345.63
2022-10-04T15:37:05.106Z,322.37
2022-10-04T15:39:58.799Z,383.03
2022-10-04T15:42:29.137Z,322.10
2022-10-04T15:45:14.382Z,320.47
2022-10-04T15:47:57.981Z,309.73
2022-10-04T15:50:27.800Z,300.13
2022-10-04T15:53:17.427Z,264.23
2022-10-04T15:56:27.107Z,385.73
2022-10-04T15:59:07.095Z,336.80
2022-10-04T16:01:45.942Z,397.03
2022-10-04T16:04:47.488Z,346.20
2022-10-04T16:07:32.523Z,342.17
2022-10-04T16:10:02.676Z,355.83
2022-10-04T16:12:33.077Z,350.07
2022-10-04T16:15:02.349Z,423.73
2022-10-04T16:17:41.640Z,390.10
2022-10-04T16:20:42.752Z,405.07
2022-10-04T16:23:29.009Z,335.50
2022-10-04T16:25:58.533Z,409.07
2022-10-04T16:28:56.214Z,359.03
2022-10-04T16:31:41.051Z,283.07
2022-10-04T16:34:18.452Z,333.07
2022-10-04T16:36:49.880Z,279.63
2022-10-04T16:39:51.815Z,366.37
2022-10-04T16:42:21.013Z,420.17
2022-10-04T16:44:54.491Z,440.83
2022-10-04T16:47:24.993Z,369.87
2022-10-04T16:49:55.080Z,358.50
2022-10-04T16:52:48.391Z,398.63
2022-10-04T16:55:28.630Z,349.90
2022-10-04T16:58:38.514Z,360.23
2022-10-04T17:01:44.975Z,414.90
2022-10-04T17:04:34.575Z,368.57
2022-10-04T17:07:09.801Z,392.93
2022-10-04T17:09:39.073Z,327.10
2022-10-04T17:12:15.928Z,444.77
2022-10-04T17:14:53.919Z,427.67
2022-10-04T17:17:29.859Z,384.30
2022-10-04T17:20:03.393Z,353.37
2022-10-04T17:22:38.652Z,454.43
2022-10-04T17:25:19.839Z,364.70
2022-10-04T17:27:50.201Z,320.17
2022-10-04T17:30:21.732Z,296.43
2022-10-04T17:33:19.388Z,470.83
2022-10-04T17:36:14.913Z,295.30
2022-10-04T17:38:48.661Z,383.13
2022-10-04T17:41:20.228Z,334.63
2022-10-04T17:44:23.607Z,339.83
2022-10-04T17:46:56.100Z,395.47
2022-10-04T17:49:50.820Z,435.77
2022-10-04T17:52:39.843Z,340.73
2022-10-04T17:55:17.409Z,399.90
2022-10-04T17:57:51.988Z,358.10
2022-10-04T18:00:20.997Z,380.90
2022-10-04T18:03:00.688Z,379.27
2022-10-04T18:05:31.030Z,411.53
2022-10-04T18:08:01.567Z,365.63
2022-10-04T18:10:32.744Z,369.77
2022-10-04T18:13:02.696Z,331.03
2022-10-04T18:15:33.529Z,428.10
2022-10-04T18:18:14.283Z,328.17
2022-10-04T18:20:58.477Z,372.10
2022-10-04T18:23:28.200Z,273.87
2022-10-04T18:25:59.373Z,139.80
2022-10-04T18:28:27.006Z,340.97
2022-10-04T18:31:00.359Z,375.43
2022-10-04T18:33:32.484Z,358.60
2022-10-04T18:36:07.370Z,273.87
2022-10-04T18:38:36.286Z,254.63
2022-10-04T18:41:13.453Z,385.37
2022-10-04T18:43:43.848Z,318.10
2022-10-04T18:46:20.980Z,287.83
2022-10-04T18:48:53.682Z,303.93
2022-10-04T18:51:26.792Z,399.03
2022-10-04T18:54:10.317Z,408.27
2022-10-04T18:56:42.002Z,143.73
2022-10-04T18:59:32.929Z,362.67
2022-10-04T19:02:09.125Z,361.07
2022-10-04T19:04:45.840Z,349.60
2022-10-04T19:07:16.560Z,392.33
2022-10-04T19:10:00.425Z,396.37
2022-10-04T19:12:33.831Z,270.47
2022-10-04T19:15:06.544Z,327.47
2022-10-04T19:17:36.668Z,379.63
2022-10-04T19:20:07.120Z,242.27
2022-10-04T19:22:46.419Z,499.60
2022-10-04T19:25:31.991Z,471.17
2022-10-04T19:28:04.236Z,507.43
2022-10-04T19:30:48.765Z,485.50
2022-10-04T19:33:20.274Z,471.60
2022-10-04T19:35:58.668Z,414.50
2022-10-04T19:38:40.465Z,473.07
2022-10-04T19:41:11.909Z,419.17
2022-10-04T19:43:46.765Z,509.70
2022-10-04T19:46:24.400Z,397.83
2022-10-04T19:48:53.205Z,559.73
2022-10-04T19:51:29.091Z,546.27
2022-10-04T19:54:03.992Z,173.80
2022-10-04T19:56:33.577Z,33.17
2022-10-04T19:59:08.059Z,50.60
2022-10-04T20:01:36.459Z,39.37
2022-10-04T20:04:26.497Z,161.80
2022-10-04T20:06:56.828Z,48.87
2022-10-04T20:09:31.295Z,27.13
2022-10-04T20:11:59.333Z,31.53
2022-10-04T20:15:08.708Z,94.97
2022-10-04T20:17:37.728Z,45.97
2022-10-04T20:20:05.401Z,85.83
2022-10-04T20:22:54.971Z,122.60
2022-10-04T20:25:59.871Z,146.97
2022-10-04T20:28:44.655Z,52.27
2022-10-04T20:31:50.205Z,130.70
2022-10-04T20:34:32.898Z,150.30
2022-10-04T20:37:00.583Z,152.77
2022-10-04T20:40:01.316Z,141.30
2022-10-04T20:42:38.881Z,188.83
2022-10-04T20:45:43.848Z,184.73
2022-10-04T20:48:14.924Z,193.07
2022-10-04T20:50:43.284Z,150.43
2022-10-04T20:53:17.148Z,214.73
2022-10-04T20:55:46.002Z,52.77
2022-10-04T20:58:31.502Z,80.27
2022-10-04T21:01:10.864Z,206.30
2022-10-04T21:03:38.430Z,227.23
2022-10-04T21:06:08.467Z,287.43
2022-10-04T21:08:36.192Z,290.53
2022-10-04T21:11:19.441Z,293.87
2022-10-04T21:13:53.718Z,245.50
2022-10-04T21:16:43.633Z,116.57
2022-10-04T21:19:44.784Z,271.97
2022-10-04T21:22:33.150Z,59.30
2022-10-04T21:25:01.673Z,265.90
2022-10-04T21:27:30.626Z,227.23
2022-10-04T21:29:58.284Z,375.60
2022-10-04T21:32:27.608Z,225.47
2022-10-04T21:34:55.145Z,282.07
2022-10-04T21:37:22.849Z,336.67
2022-10-04T21:39:50.446Z,343.47
2022-10-04T21:42:18.128Z,263.87
2022-10-04T21:44:45.648Z,281.83
2022-10-04T21:47:13.172Z,360.90
2022-10-04T21:49:42.400Z,269.03
2022-10-04T21:52:10.153Z,325.27
2022-10-04T21:54:37.695Z,390.50
2022-10-04T21:57:05.364Z,308.37
2022-10-04T21:59:32.897Z,129.00
2022-10-04T22:02:00.792Z,347.20
2022-10-04T22:04:28.388Z,294.03
2022-10-04T22:06:57.282Z,341.50
2022-10-04T22:09:24.816Z,380.30
2022-10-04T22:11:52.336Z,362.57
2022-10-04T22:14:19.911Z,420.23
2022-10-04T22:16:47.992Z,345.60
2022-10-04T22:19:15.732Z,197.27
2022-10-04T22:21:43.299Z,391.00
2022-10-04T22:24:17.213Z,358.83
2022-10-04T22:26:44.980Z,382.63
2022-10-04T22:29:14.260Z,410.33
2022-10-04T22:31:44.375Z,204.07
2022-10-04T22:34:17.338Z,414.27
2022-10-04T22:36:46.017Z,379.67
2022-10-04T22:39:17.181Z,422.67
2022-10-04T22:41:46.352Z,221.33
2022-10-04T22:44:16.649Z,431.37
2022-10-04T22:46:45.958Z,348.10
2022-10-04T22:49:15.196Z,377.47
2022-10-04T22:51:44.700Z,396.63
2022-10-04T22:54:13.353Z,367.53
2022-10-04T22:56:42.563Z,377.03
2022-10-04T22:59:11.334Z,362.30
2022-10-04T23:01:39.217Z,340.07
2022-10-04T23:04:12.764Z,433.17
2022-10-04T23:06:40.287Z,441.67
2022-10-04T23:09:07.855Z,358.67
2022-10-04T23:11:35.364Z,303.70
2022-10-04T23:14:04.246Z,422.87
2022-10-04T23:16:31.921Z,460.97
2022-10-04T23:19:02.289Z,377.40
2022-10-04T23:21:34.504Z,356.43
2022-10-04T23:24:07.615Z,299.20
2022-10-04T23:26:38.403Z,63.37
2022-10-04T23:29:08.664Z,259.83
2022-10-04T23:31:37.874Z,91.77
2022-10-04T23:34:15.576Z,285.50
2022-10-04T23:36:43.218Z,182.40
2022-10-04T23:39:14.877Z,302.50
2022-10-04T23:41:43.110Z,278.60
2022-10-04T23:44:14.090Z,280.20
2022-10-04T23:46:41.744Z,250.10
2022-10-04T23:49:13.379Z,322.70
2022-10-04T23:51:40.952Z,271.47
2022-10-04T23:54:11.931Z,306.47
2022-10-04T23:56:39.457Z,353.33
2022-10-04T23:59:15.715Z,298.63
